createdAt,value
2023-04-03T00:00:45.064Z,2.70
2023-04-03T00:03:13.297Z,2.50
2023-04-03T00:05:41.464Z,2.30
2023-04-03T00:08:10.502Z,2.60
2023-04-03T00:10:39.595Z,2.13
2023-04-03T00:13:08.973Z,2.77
2023-04-03T00:15:37.806Z,2.27
2023-04-03T00:18:07.820Z,2.33
2023-04-03T00:20:36.479Z,2.97
2023-04-03T00:23:04.872Z,2.20
2023-04-03T00:25:33.080Z,2.73
2023-04-03T00:28:01.527Z,2.33
2023-04-03T00:30:29.876Z,2.40
2023-04-03T00:32:58.078Z,2.33
2023-04-03T00:35:27.707Z,2.70
2023-04-03T00:37:56.456Z,2.50
2023-04-03T00:40:25.633Z,2.40
2023-04-03T00:42:54.817Z,2.23
2023-04-03T00:45:36.454Z,2.47
2023-04-03T00:48:07.321Z,2.60
2023-04-03T00:50:38.329Z,2.90
2023-04-03T00:53:07.700Z,2.47
2023-04-03T00:55:36.717Z,2.60
2023-04-03T00:58:05.324Z,2.77
2023-04-03T01:00:33.669Z,2.50
2023-04-03T01:03:03.081Z,2.20
2023-04-03T01:05:31.293Z,2.20
2023-04-03T01:08:00.950Z,2.67
2023-04-03T01:10:29.174Z,2.57
2023-04-03T01:12:57.335Z,2.53
2023-04-03T01:15:27.182Z,2.53
2023-04-03T01:17:57.208Z,2.67
2023-04-03T01:20:44.232Z,2.33
2023-04-03T01:23:22.641Z,2.27
2023-04-03T01:25:52.375Z,2.93
2023-04-03T01:28:22.413Z,2.73
2023-04-03T01:30:53.017Z,2.17
2023-04-03T01:33:22.737Z,2.53
2023-04-03T01:35:50.928Z,2.77
2023-04-03T01:38:19.170Z,2.43
2023-04-03T01:40:47.381Z,2.90
2023-04-03T01:43:15.696Z,2.37
2023-04-03T01:45:43.909Z,2.90
2023-04-03T01:48:12.108Z,2.50
2023-04-03T01:50:41.622Z,2.40
2023-04-03T01:53:09.856Z,2.30
2023-04-03T01:55:38.005Z,2.70
2023-04-03T01:58:06.265Z,2.50
2023-04-03T02:00:34.780Z,2.40
2023-04-03T02:03:03.506Z,2.50
2023-04-03T02:05:31.854Z,2.93
2023-04-03T02:08:01.545Z,2.70
2023-04-03T02:10:29.750Z,2.30
2023-04-03T02:12:57.905Z,2.73
2023-04-03T02:15:26.424Z,2.43
2023-04-03T02:17:54.726Z,2.87
2023-04-03T02:20:23.001Z,2.60
2023-04-03T02:22:51.141Z,2.57
2023-04-03T02:25:21.323Z,2.67
2023-04-03T02:27:49.786Z,2.97
2023-04-03T02:30:18.108Z,3.20
2023-04-03T02:32:46.457Z,2.93
2023-04-03T02:35:14.920Z,3.33
2023-04-03T02:37:43.156Z,3.10
2023-04-03T02:40:12.422Z,3.60
2023-04-03T02:42:41.961Z,3.00
2023-04-03T02:45:10.398Z,3.57
2023-04-03T02:47:38.644Z,2.63
2023-04-03T02:50:07.452Z,2.93
2023-04-03T02:52:35.608Z,3.53
2023-04-03T02:55:04.579Z,2.90
2023-04-03T02:57:32.762Z,3.27
2023-04-03T03:00:02.332Z,2.80
2023-04-03T03:02:30.524Z,2.80
2023-04-03T03:04:59.230Z,2.73
2023-04-03T03:07:27.613Z,3.33
2023-04-03T03:09:55.795Z,2.83
2023-04-03T03:12:25.131Z,2.90
2023-04-03T03:14:53.337Z,3.20
2023-04-03T03:17:22.850Z,3.10
2023-04-03T03:19:52.134Z,3.50
2023-04-03T03:22:20.342Z,3.57
2023-04-03T03:24:48.557Z,3.07
2023-04-03T03:27:17.406Z,3.17
2023-04-03T03:29:45.731Z,3.43
2023-04-03T03:32:13.909Z,2.90
2023-04-03T03:34:43.465Z,3.33
2023-04-03T03:37:11.617Z,3.10
2023-04-03T03:39:39.780Z,3.60
2023-04-03T03:42:07.956Z,3.57
2023-04-03T03:44:36.200Z,3.73
2023-04-03T03:47:04.444Z,3.83
2023-04-03T03:49:32.678Z,3.83
2023-04-03T03:52:02.170Z,3.43
2023-04-03T03:54:30.364Z,3.60
2023-04-03T03:56:58.555Z,3.60
2023-04-03T03:59:27.151Z,3.70
2023-04-03T04:01:55.781Z,3.50
2023-04-03T04:04:24.102Z,3.70
2023-04-03T04:06:52.760Z,4.00
2023-04-03T04:09:22.618Z,4.10
2023-04-03T04:11:50.795Z,4.13
2023-04-03T04:14:19.214Z,4.00
2023-04-03T04:16:47.411Z,3.63
2023-04-03T04:19:15.687Z,4.03
2023-04-03T04:21:43.834Z,4.00
2023-04-03T04:24:12.114Z,4.33
2023-04-03T04:26:41.764Z,4.17
2023-04-03T04:29:11.266Z,4.50
2023-04-03T04:31:39.457Z,4.00
2023-04-03T04:34:07.617Z,4.50
2023-04-03T04:36:36.138Z,4.83
2023-04-03T04:39:04.336Z,4.50
2023-04-03T04:41:32.519Z,4.93
2023-04-03T04:44:01.999Z,4.47
2023-04-03T04:46:30.368Z,4.73
2023-04-03T04:48:58.591Z,4.80
2023-04-03T04:51:29.539Z,5.10
2023-04-03T04:54:01.094Z,4.93
2023-04-03T04:56:29.285Z,5.83
2023-04-03T04:58:57.498Z,5.20
2023-04-03T05:01:27.059Z,5.93
2023-04-03T05:03:55.394Z,5.80
2023-04-03T05:06:23.561Z,5.37
2023-04-03T05:08:51.714Z,6.17
2023-04-03T05:11:19.927Z,6.10
2023-04-03T05:13:48.086Z,5.80
2023-04-03T05:16:16.294Z,5.83
2023-04-03T05:18:45.901Z,6.30
2023-04-03T05:21:14.075Z,8.00
2023-04-03T05:23:42.259Z,6.97
2023-04-03T05:26:10.480Z,6.67
2023-04-03T05:28:38.909Z,6.13
2023-04-03T05:31:07.223Z,6.77
2023-04-03T05:33:35.788Z,7.00
2023-04-03T05:36:06.619Z,6.40
2023-04-03T05:38:35.116Z,7.67
2023-04-03T05:41:03.310Z,7.73
2023-04-03T05:43:31.611Z,7.83
2023-04-03T05:45:59.827Z,7.70
2023-04-03T05:48:28.073Z,8.07
2023-04-03T05:50:57.173Z,7.93
2023-04-03T05:53:28.822Z,7.33
2023-04-03T05:55:57.036Z,5.90
2023-04-03T05:58:25.228Z,5.97
2023-04-03T06:00:54.106Z,4.00
2023-04-03T06:03:22.410Z,3.73
2023-04-03T06:05:51.120Z,4.60
2023-04-03T06:08:19.655Z,4.07
2023-04-03T06:10:49.232Z,4.30
2023-04-03T06:13:17.908Z,4.10
2023-04-03T06:15:46.123Z,3.60
2023-04-03T06:18:14.266Z,3.87
2023-04-03T06:20:42.514Z,3.87
2023-04-03T06:23:11.376Z,3.40
2023-04-03T06:25:39.532Z,3.60
2023-04-03T06:28:10.234Z,4.07
2023-04-03T06:30:39.074Z,3.50
2023-04-03T06:33:07.621Z,3.50
2023-04-03T06:35:36.177Z,3.40
2023-04-03T06:38:05.384Z,3.57
2023-04-03T06:40:33.653Z,3.50
2023-04-03T06:43:01.894Z,3.60
2023-04-03T06:45:31.535Z,3.87
2023-04-03T06:47:59.716Z,3.90
2023-04-03T06:50:27.946Z,3.90
2023-04-03T06:52:56.241Z,3.87
2023-04-03T06:55:24.430Z,3.93
2023-04-03T06:57:52.712Z,3.70
2023-04-03T07:00:21.325Z,3.67
2023-04-03T07:02:50.862Z,3.33
2023-04-03T07:05:19.433Z,3.67
2023-04-03T07:07:47.601Z,2.97
2023-04-03T07:10:15.808Z,3.23
2023-04-03T07:12:44.117Z,3.20
2023-04-03T07:15:13.284Z,3.13
2023-04-03T07:17:41.686Z,3.20
2023-04-03T07:20:11.880Z,2.63
2023-04-03T07:22:40.084Z,3.20
2023-04-03T07:25:08.888Z,2.70
2023-04-03T07:27:37.531Z,2.63
2023-04-03T07:30:06.005Z,3.10
2023-04-03T07:32:34.277Z,3.17
2023-04-03T07:35:02.674Z,3.77
2023-04-03T07:37:33.475Z,2.77
2023-04-03T07:40:04.402Z,3.30
2023-04-03T07:42:32.650Z,2.33
2023-04-03T07:45:01.135Z,2.73
2023-04-03T07:47:29.331Z,2.43
2023-04-03T07:49:58.193Z,2.60
2023-04-03T07:52:26.453Z,2.30
2023-04-03T07:54:55.966Z,2.40
2023-04-03T07:57:24.167Z,2.30
2023-04-03T07:59:52.347Z,2.33
2023-04-03T08:02:20.897Z,2.53
2023-04-03T08:04:49.222Z,2.20
2023-04-03T08:07:17.562Z,2.10
2023-04-03T08:09:45.959Z,2.30
2023-04-03T08:12:15.892Z,2.37
2023-04-03T08:14:44.080Z,2.07
2023-04-03T08:17:13.479Z,2.13
2023-04-03T08:19:42.162Z,2.33
2023-04-03T08:22:10.317Z,2.00
2023-04-03T08:24:41.040Z,2.00
2023-04-03T08:27:11.614Z,2.33
2023-04-03T08:29:41.290Z,2.27
2023-04-03T08:32:10.124Z,2.30
2023-04-03T08:34:40.284Z,1.97
2023-04-03T08:37:08.464Z,2.03
2023-04-03T08:39:36.592Z,2.17
2023-04-03T08:42:08.361Z,2.00
2023-04-03T08:44:43.242Z,2.53
2023-04-03T08:47:20.456Z,2.20
2023-04-03T08:49:52.268Z,1.97
2023-04-03T08:52:23.102Z,2.47
2023-04-03T08:54:52.614Z,2.40
2023-04-03T08:57:23.230Z,2.40
2023-04-03T08:59:51.460Z,2.27
2023-04-03T09:02:27.394Z,2.70
2023-04-03T09:04:56.575Z,2.60
2023-04-03T09:07:29.082Z,3.03
2023-04-03T09:09:59.881Z,2.43
2023-04-03T09:12:30.962Z,2.50
2023-04-03T09:15:03.170Z,2.27
2023-04-03T09:17:38.404Z,2.70
2023-04-03T09:20:12.273Z,2.47
2023-04-03T09:22:45.812Z,2.73
2023-04-03T09:25:21.428Z,2.80
2023-04-03T09:27:49.607Z,2.30
2023-04-03T09:30:19.182Z,2.60
2023-04-03T09:32:49.395Z,2.07
2023-04-03T09:35:27.468Z,2.60
2023-04-03T09:38:04.940Z,2.23
2023-04-03T09:40:36.590Z,2.23
2023-04-03T09:43:05.723Z,2.23
2023-04-03T09:45:34.796Z,2.47
2023-04-03T09:48:16.302Z,2.30
2023-04-03T09:50:56.514Z,2.30
2023-04-03T09:53:29.059Z,1.90
2023-04-03T09:55:57.316Z,2.00
2023-04-03T09:58:29.581Z,2.73
2023-04-03T10:01:02.959Z,2.33
2023-04-03T10:03:35.342Z,2.20
2023-04-03T10:06:03.814Z,2.20
2023-04-03T10:08:33.361Z,2.03
2023-04-03T10:11:10.864Z,2.13
2023-04-03T10:13:48.976Z,2.00
2023-04-03T10:16:21.024Z,2.07
2023-04-03T10:18:52.082Z,1.80
2023-04-03T10:21:27.732Z,2.20
2023-04-03T10:24:02.001Z,2.07
2023-04-03T10:26:36.145Z,2.37
2023-04-03T10:29:09.261Z,1.83
2023-04-03T10:31:40.104Z,2.00
2023-04-03T10:34:23.920Z,2.30
2023-04-03T10:36:56.648Z,1.70
2023-04-03T10:39:30.618Z,2.17
2023-04-03T10:42:16.122Z,2.17
2023-04-03T10:44:55.195Z,1.63
2023-04-03T10:47:24.545Z,1.77
2023-04-03T10:49:59.885Z,2.13
2023-04-03T10:52:33.367Z,1.80
2023-04-03T10:55:05.091Z,1.67
2023-04-03T10:57:33.334Z,1.60
2023-04-03T11:00:03.854Z,1.63
2023-04-03T11:02:33.411Z,1.40
2023-04-03T11:05:07.469Z,1.70
2023-04-03T11:07:37.820Z,1.60
2023-04-03T11:10:08.704Z,1.67
2023-04-03T11:12:39.276Z,1.43
2023-04-03T11:15:08.147Z,1.40
2023-04-03T11:17:38.560Z,1.80
2023-04-03T11:20:11.736Z,1.97
2023-04-03T11:22:42.026Z,1.87
2023-04-03T11:25:20.801Z,1.57
2023-04-03T11:27:51.772Z,1.67
2023-04-03T11:30:22.159Z,1.30
2023-04-03T11:33:17.434Z,1.40
2023-04-03T11:35:48.109Z,1.60
2023-04-03T11:38:20.132Z,1.80
2023-04-03T11:40:49.518Z,1.30
2023-04-03T11:43:26.513Z,1.73
2023-04-03T11:46:00.106Z,1.70
2023-04-03T11:48:47.007Z,1.50
2023-04-03T11:51:33.979Z,1.40
2023-04-03T11:54:38.467Z,1.60
2023-04-03T11:57:46.726Z,1.50
2023-04-03T12:00:33.527Z,1.50
2023-04-03T12:03:01.912Z,1.57
2023-04-03T12:05:31.343Z,1.10
2023-04-03T12:08:18.261Z,1.23
2023-04-03T12:11:07.314Z,1.63
2023-04-03T12:13:37.310Z,1.27
2023-04-03T12:16:05.696Z,1.30
2023-04-03T12:18:42.417Z,1.67
2023-04-03T12:21:10.776Z,1.50
2023-04-03T12:23:39.945Z,1.77
2023-04-03T12:26:22.675Z,1.50
2023-04-03T12:28:53.743Z,1.93
2023-04-03T12:31:23.045Z,1.53
2023-04-03T12:34:01.655Z,1.57
2023-04-03T12:36:33.249Z,1.40
2023-04-03T12:39:07.044Z,1.40
2023-04-03T12:41:40.241Z,1.37
2023-04-03T12:44:16.316Z,1.50
2023-04-03T12:46:46.123Z,1.30
2023-04-03T12:49:25.496Z,1.30
2023-04-03T12:51:53.670Z,1.20
2023-04-03T12:54:23.654Z,1.60
2023-04-03T12:56:52.488Z,1.43
2023-04-03T12:59:23.706Z,1.50
2023-04-03T13:01:58.507Z,1.57
2023-04-03T13:04:27.187Z,1.83
2023-04-03T13:06:55.473Z,1.70
2023-04-03T13:09:26.217Z,1.50
2023-04-03T13:11:57.166Z,1.50
2023-04-03T13:14:29.086Z,1.63
2023-04-03T13:16:58.008Z,1.10
2023-04-03T13:19:29.230Z,1.37
2023-04-03T13:22:02.114Z,1.40
2023-04-03T13:24:31.213Z,1.50
2023-04-03T13:26:59.437Z,1.60
2023-04-03T13:29:32.008Z,1.50
2023-04-03T13:32:01.790Z,1.57
2023-04-03T13:34:38.270Z,1.60
2023-04-03T13:37:09.027Z,1.67
2023-04-03T13:39:38.839Z,1.50
2023-04-03T13:42:18.063Z,1.37
2023-04-03T13:44:48.431Z,1.67
2023-04-03T13:47:18.283Z,1.30
2023-04-03T13:49:47.845Z,1.20
2023-04-03T13:52:26.549Z,1.20
2023-04-03T13:54:55.879Z,1.07
2023-04-03T13:57:24.552Z,1.10
2023-04-03T13:59:54.249Z,1.20
2023-04-03T14:02:23.870Z,1.40
2023-04-03T14:04:59.194Z,1.10
2023-04-03T14:07:27.773Z,1.30
2023-04-03T14:09:56.045Z,1.10
2023-04-03T14:12:31.541Z,1.50
2023-04-03T14:15:02.823Z,1.20
2023-04-03T14:17:32.139Z,1.30
2023-04-03T14:20:01.893Z,1.10
2023-04-03T14:22:31.509Z,1.23
2023-04-03T14:24:59.719Z,1.13
2023-04-03T14:27:29.404Z,1.10
2023-04-03T14:29:58.391Z,1.10
2023-04-03T14:32:28.573Z,1.23
2023-04-03T14:34:57.960Z,1.20
2023-04-03T14:37:27.462Z,1.30
2023-04-03T14:39:56.253Z,1.20
2023-04-03T14:42:26.258Z,1.27
2023-04-03T14:44:54.616Z,1.20
2023-04-03T14:47:31.055Z,1.30
2023-04-03T14:50:01.828Z,1.10
2023-04-03T14:52:32.532Z,1.30
2023-04-03T14:55:01.282Z,1.10
2023-04-03T14:57:30.658Z,1.10
2023-04-03T14:59:58.882Z,1.30
2023-04-03T15:02:29.336Z,1.20
2023-04-03T15:04:57.759Z,1.37
2023-04-03T15:07:29.231Z,1.20
2023-04-03T15:09:57.696Z,1.13
2023-04-03T15:12:25.984Z,1.20
2023-04-03T15:15:01.884Z,1.00
2023-04-03T15:17:31.881Z,1.03
2023-04-03T15:20:00.992Z,1.27
2023-04-03T15:22:30.713Z,1.03
2023-04-03T15:24:58.854Z,1.40
2023-04-03T15:27:27.269Z,1.03
2023-04-03T15:29:55.586Z,1.10
2023-04-03T15:32:23.778Z,1.10
2023-04-03T15:34:54.993Z,1.30
2023-04-03T15:37:24.898Z,1.40
2023-04-03T15:39:54.498Z,1.43
2023-04-03T15:42:22.674Z,1.40
2023-04-03T15:44:50.899Z,1.20
2023-04-03T15:47:19.051Z,1.13
2023-04-03T15:49:47.260Z,1.40
2023-04-03T15:52:15.451Z,1.17
2023-04-03T15:54:43.751Z,1.30
2023-04-03T15:57:13.485Z,1.40
2023-04-03T15:59:41.752Z,1.30
2023-04-03T16:02:10.503Z,1.13
2023-04-03T16:04:38.705Z,1.53
2023-04-03T16:07:07.225Z,1.47
2023-04-03T16:09:38.316Z,1.33
2023-04-03T16:12:06.575Z,1.23
2023-04-03T16:14:45.629Z,1.40
2023-04-03T16:17:13.879Z,1.20
2023-04-03T16:19:42.082Z,1.50
2023-04-03T16:22:10.293Z,1.37
2023-04-03T16:24:39.057Z,1.10
2023-04-03T16:27:07.213Z,1.50
2023-04-03T16:29:37.180Z,1.20
2023-04-03T16:32:06.291Z,1.30
2023-04-03T16:34:34.512Z,1.20
2023-04-03T16:37:02.834Z,1.13
2023-04-03T16:39:31.057Z,1.40
2023-04-03T16:41:59.227Z,1.40
2023-04-03T16:44:27.406Z,1.40
2023-04-03T16:46:57.048Z,1.30
2023-04-03T16:49:25.483Z,1.33
2023-04-03T16:51:53.704Z,1.40
2023-04-03T16:54:21.843Z,1.30
2023-04-03T16:56:50.055Z,1.33
2023-04-03T16:59:18.280Z,1.50
2023-04-03T17:01:46.487Z,1.20
2023-04-03T17:04:16.036Z,1.63
2023-04-03T17:06:44.391Z,1.10
2023-04-03T17:09:12.692Z,1.63
2023-04-03T17:11:40.898Z,1.60
2023-04-03T17:14:09.831Z,1.50
2023-04-03T17:16:39.497Z,1.30
2023-04-03T17:19:08.042Z,1.23
2023-04-03T17:21:38.263Z,1.20
2023-04-03T17:24:09.300Z,1.60
2023-04-03T17:26:38.466Z,1.40
2023-04-03T17:29:06.793Z,1.40
2023-04-03T17:31:35.023Z,1.30
2023-04-03T17:34:03.291Z,1.50
2023-04-03T17:36:31.555Z,1.60
2023-04-03T17:39:01.331Z,1.40
2023-04-03T17:41:29.591Z,1.73
2023-04-03T17:43:57.823Z,1.50
2023-04-03T17:46:26.505Z,1.33
2023-04-03T17:48:55.280Z,1.60
2023-04-03T17:51:25.299Z,1.87
2023-04-03T17:53:53.686Z,2.13
2023-04-03T17:56:24.423Z,1.60
2023-04-03T17:58:53.012Z,1.67
2023-04-03T18:01:22.103Z,1.87
2023-04-03T18:03:50.762Z,1.87
2023-04-03T18:06:20.043Z,1.90
2023-04-03T18:08:50.128Z,1.60
2023-04-03T18:11:19.127Z,1.57
2023-04-03T18:13:48.705Z,1.83
2023-04-03T18:16:16.959Z,1.80
2023-04-03T18:18:45.146Z,1.53
2023-04-03T18:21:15.264Z,1.93
2023-04-03T18:23:44.965Z,1.50
2023-04-03T18:26:16.621Z,1.93
2023-04-03T18:28:50.772Z,1.60
2023-04-03T18:31:20.400Z,1.50
2023-04-03T18:33:48.610Z,1.40
2023-04-03T18:38:49.826Z,1.70
2023-04-03T18:41:18.164Z,1.47
2023-04-03T18:43:46.345Z,1.13
2023-04-03T18:46:16.041Z,1.60
2023-04-03T18:48:45.958Z,1.67
2023-04-03T18:51:14.626Z,1.30
2023-04-03T18:53:42.835Z,1.57
2023-04-03T18:56:11.044Z,1.57
2023-04-03T18:58:39.299Z,1.70
2023-04-03T19:01:07.864Z,1.60
2023-04-03T19:03:38.081Z,1.50
2023-04-03T19:06:06.653Z,1.40
2023-04-03T19:08:34.914Z,1.73
2023-04-03T19:11:03.182Z,1.60
2023-04-03T19:13:32.443Z,1.70
2023-04-03T19:16:00.918Z,1.30
2023-04-03T19:18:29.432Z,1.80
2023-04-03T19:20:59.954Z,1.53
2023-04-03T19:23:28.467Z,1.70
2023-04-03T19:26:00.839Z,1.70
2023-04-03T19:28:29.236Z,1.67
2023-04-03T19:30:58.255Z,1.40
2023-04-03T19:33:26.806Z,1.80
2023-04-03T19:35:55.013Z,1.70
2023-04-03T19:38:24.579Z,1.80
2023-04-03T19:40:52.878Z,1.70
2023-04-03T19:43:21.054Z,1.50
2023-04-03T19:45:49.202Z,1.63
2023-04-03T19:48:17.437Z,1.80
2023-04-03T19:50:45.827Z,1.80
2023-04-03T19:53:19.187Z,1.80
2023-04-03T19:55:48.833Z,1.50
2023-04-03T19:58:17.160Z,1.50
2023-04-03T20:00:45.395Z,1.50
2023-04-03T20:03:13.679Z,1.80
2023-04-03T20:05:41.951Z,1.73
2023-04-03T20:08:10.106Z,1.67
2023-04-03T20:10:40.472Z,1.80
2023-04-03T20:13:10.854Z,1.80
2023-04-03T20:15:41.168Z,1.70
2023-04-03T20:18:10.013Z,1.50
2023-04-03T20:20:41.863Z,2.00
2023-04-03T20:23:11.074Z,2.03
2023-04-03T20:25:50.625Z,1.70
2023-04-03T20:28:27.966Z,1.87
2023-04-03T20:30:56.702Z,1.27
2023-04-03T20:33:26.245Z,1.87
2023-04-03T20:35:54.738Z,1.93
2023-04-03T20:38:23.341Z,1.57
2023-04-03T20:40:52.122Z,2.13
2023-04-03T20:43:21.788Z,1.70
2023-04-03T20:45:51.420Z,1.50
2023-04-03T20:48:19.573Z,1.50
2023-04-03T20:50:47.853Z,1.70
2023-04-03T20:53:18.028Z,1.90
2023-04-03T20:55:56.523Z,1.60
2023-04-03T20:58:25.084Z,2.20
2023-04-03T21:00:56.650Z,1.97
2023-04-03T21:03:25.388Z,1.90
2023-04-03T21:06:00.159Z,2.00
2023-04-03T21:08:47.856Z,2.20
2023-04-03T21:11:36.232Z,1.83
2023-04-03T21:14:27.836Z,2.13
2023-04-03T21:16:56.154Z,2.10
2023-04-03T21:19:26.178Z,1.70
2023-04-03T21:21:55.019Z,1.43
2023-04-03T21:24:23.864Z,1.97
2023-04-03T21:26:52.053Z,1.77
2023-04-03T21:29:20.360Z,1.80
2023-04-03T21:31:49.028Z,1.93
2023-04-03T21:34:17.178Z,1.60
2023-04-03T21:36:47.139Z,2.23
2023-04-03T21:39:15.505Z,1.57
2023-04-03T21:41:43.681Z,1.70
2023-04-03T21:44:12.108Z,1.83
2023-04-03T21:46:40.332Z,1.73
2023-04-03T21:49:08.553Z,2.00
2023-04-03T21:51:38.779Z,1.70
2023-04-03T21:54:08.497Z,2.07
2023-04-03T21:56:36.678Z,1.30
2023-04-03T21:59:05.321Z,2.10
2023-04-03T22:01:33.581Z,1.90
2023-04-03T22:04:02.500Z,1.57
2023-04-03T22:06:31.169Z,1.80
2023-04-03T22:08:59.352Z,1.70
2023-04-03T22:11:29.285Z,2.10
2023-04-03T22:13:57.740Z,2.37
2023-04-03T22:16:26.551Z,1.70
2023-04-03T22:18:56.883Z,1.53
2023-04-03T22:21:25.083Z,1.90
2023-04-03T22:23:54.457Z,1.50
2023-04-03T22:26:22.640Z,1.90
2023-04-03T22:28:52.228Z,1.63
2023-04-03T22:31:21.009Z,1.83
2023-04-03T22:33:49.263Z,1.77
2023-04-03T22:36:17.492Z,1.57
2023-04-03T22:38:46.747Z,1.83
2023-04-03T22:41:15.126Z,2.10
2023-04-03T22:43:43.519Z,2.10
2023-04-03T22:46:13.628Z,1.70
2023-04-03T22:48:43.396Z,2.10
2023-04-03T22:51:11.640Z,1.97
2023-04-03T22:53:39.834Z,1.90
2023-04-03T22:56:10.617Z,1.70
2023-04-03T22:58:39.251Z,1.80
2023-04-03T23:01:08.650Z,1.83
2023-04-03T23:03:39.144Z,2.10
2023-04-03T23:06:07.693Z,1.93
2023-04-03T23:08:37.984Z,2.30
2023-04-03T23:11:09.187Z,2.40
2023-04-03T23:13:37.831Z,2.13
2023-04-03T23:16:06.705Z,2.10
2023-04-03T23:18:35.074Z,1.83
2023-04-03T23:21:04.794Z,2.27
2023-04-03T23:23:33.082Z,1.60
2023-04-03T23:26:01.911Z,2.10
2023-04-03T23:28:31.040Z,1.77
2023-04-03T23:31:00.312Z,2.30
2023-04-03T23:33:28.529Z,1.87
2023-04-03T23:35:58.449Z,2.07
2023-04-03T23:38:28.259Z,1.50
2023-04-03T23:40:56.490Z,2.00
2023-04-03T23:43:24.645Z,2.00
2023-04-03T23:45:52.864Z,2.00
2023-04-03T23:48:21.154Z,1.80
2023-04-03T23:50:49.342Z,2.10
2023-04-03T23:53:18.308Z,2.10
2023-04-03T23:55:47.812Z,1.90
2023-04-03T23:58:15.973Z,2.00
